<?xml version="1.0" encoding="utf-8"?>
<gpx xmlns:xsi="http://www.w3.org/2001/XMLSchema-instance" xmlns:xsd="http://www.w3.org/2001/XMLSchema" version="1.1" creator="Shapelink.com" xmlns="http://www.topografix.com/GPX/1/1" xmlns:gpxtpx="http://www.garmin.com/xmlschemas/TrackPointExtension/v1">
  <metadata>
    <name>Floorball 1.34 km, 2020-01-01</name>
    <desc></desc>
    <author><name>Peter Littke</name></author> 
    <time>2020-01-01T18:37:02Z</time>
  </metadata>
  <trk>
    <name>Floorball 1.34 km, 2020-01-01</name>
    <trkseg>
      <trkpt lat="59.340434" lon="18.085408">
        <ele>18</ele>
        <time>2020-01-01T18:37:02Z</time>
      </trkpt>
      <trkpt lat="59.340526" lon="18.085466">
        <ele>0</ele>
        <time>2020-01-01T18:37:18Z</time>
      </trkpt>
      <trkpt lat="59.340459" lon="18.085337">
        <ele>0</ele>
        <time>2020-01-01T18:37:43Z</time>
      </trkpt>
      <trkpt lat="59.340539" lon="18.085443">
        <ele>18</ele>
        <time>2020-01-01T18:38:08Z</time>
      </trkpt>
      <trkpt lat="59.340484" lon="18.085618">
        <ele>14</ele>
        <time>2020-01-01T18:40:01Z</time>
      </trkpt>
      <trkpt lat="59.340506" lon="18.085432">
        <ele>14</ele>
        <time>2020-01-01T18:40:11Z</time>
      </trkpt>
      <trkpt lat="59.340576" lon="18.085549">
        <ele>0</ele>
        <time>2020-01-01T18:41:00Z</time>
      </trkpt>
      <trkpt lat="59.340486" lon="18.085529">
        <ele>13</ele>
        <time>2020-01-01T18:41:49Z</time>
      </trkpt>
      <trkpt lat="59.340476" lon="18.085342">
        <ele>0</ele>
        <time>2020-01-01T18:41:55Z</time>
      </trkpt>
      <trkpt lat="59.34056" lon="18.085423">
        <ele>13</ele>
        <time>2020-01-01T18:42:20Z</time>
      </trkpt>
      <trkpt lat="59.340556" lon="18.085243">
        <ele>0</ele>
        <time>2020-01-01T18:42:36Z</time>
      </trkpt>
      <trkpt lat="59.340465" lon="18.08524">
        <ele>12</ele>
        <time>2020-01-01T18:42:51Z</time>
      </trkpt>
      <trkpt lat="59.340445" lon="18.085034">
        <ele>0</ele>
        <time>2020-01-01T18:42:54Z</time>
      </trkpt>
      <trkpt lat="59.340455" lon="18.084826">
        <ele>0</ele>
        <time>2020-01-01T18:42:57Z</time>
      </trkpt>
      <trkpt lat="59.340459" lon="18.085036">
        <ele>11</ele>
        <time>2020-01-01T18:43:01Z</time>
      </trkpt>
      <trkpt lat="59.340529" lon="18.085204">
        <ele>0</ele>
        <time>2020-01-01T18:43:09Z</time>
      </trkpt>
      <trkpt lat="59.340537" lon="18.08538">
        <ele>0</ele>
        <time>2020-01-01T18:43:14Z</time>
      </trkpt>
      <trkpt lat="59.340556" lon="18.085562">
        <ele>17</ele>
        <time>2020-01-01T18:44:09Z</time>
      </trkpt>
      <trkpt lat="59.340549" lon="18.085374">
        <ele>0</ele>
        <time>2020-01-01T18:44:37Z</time>
      </trkpt>
      <trkpt lat="59.3405" lon="18.085522">
        <ele>0</ele>
        <time>2020-01-01T18:44:49Z</time>
      </trkpt>
      <trkpt lat="59.340411" lon="18.085572">
        <ele>18</ele>
        <time>2020-01-01T18:45:40Z</time>
      </trkpt>
      <trkpt lat="59.340496" lon="18.085633">
        <ele>15</ele>
        <time>2020-01-01T18:46:35Z</time>
      </trkpt>
      <trkpt lat="59.340433" lon="18.085495">
        <ele>0</ele>
        <time>2020-01-01T18:46:52Z</time>
      </trkpt>
      <trkpt lat="59.340434" lon="18.085295">
        <ele>17</ele>
        <time>2020-01-01T18:47:10Z</time>
      </trkpt>
      <trkpt lat="59.340487" lon="18.085444">
        <ele>0</ele>
        <time>2020-01-01T18:47:48Z</time>
      </trkpt>
      <trkpt lat="59.340395" lon="18.085445">
        <ele>16</ele>
        <time>2020-01-01T18:48:47Z</time>
      </trkpt>
      <trkpt lat="59.340406" lon="18.085621">
        <ele>17</ele>
        <time>2020-01-01T18:49:12Z</time>
      </trkpt>
      <trkpt lat="59.340479" lon="18.085501">
        <ele>0</ele>
        <time>2020-01-01T18:49:40Z</time>
      </trkpt>
      <trkpt lat="59.340567" lon="18.085578">
        <ele>16</ele>
        <time>2020-01-01T18:50:43Z</time>
      </trkpt>
      <trkpt lat="59.340475" lon="18.085588">
        <ele>15</ele>
        <time>2020-01-01T18:51:02Z</time>
      </trkpt>
      <trkpt lat="59.340502" lon="18.08542">
        <ele>0</ele>
        <time>2020-01-01T18:51:25Z</time>
      </trkpt>
      <trkpt lat="59.340466" lon="18.085582">
        <ele>0</ele>
        <time>2020-01-01T18:51:43Z</time>
      </trkpt>
      <trkpt lat="59.340537" lon="18.08569">
        <ele>0</ele>
        <time>2020-01-01T18:51:56Z</time>
      </trkpt>
      <trkpt lat="59.340568" lon="18.085517">
        <ele>13</ele>
        <time>2020-01-01T18:52:17Z</time>
      </trkpt>
      <trkpt lat="59.340511" lon="18.085653">
        <ele>0</ele>
        <time>2020-01-01T18:52:29Z</time>
      </trkpt>
      <trkpt lat="59.340417" lon="18.085609">
        <ele>0</ele>
        <time>2020-01-01T18:52:46Z</time>
      </trkpt>
      <trkpt lat="59.340502" lon="18.085526">
        <ele>10</ele>
        <time>2020-01-01T18:53:06Z</time>
      </trkpt>
      <trkpt lat="59.340602" lon="18.08551">
        <ele>0</ele>
        <time>2020-01-01T18:53:16Z</time>
      </trkpt>
      <trkpt lat="59.340512" lon="18.085493">
        <ele>0</ele>
        <time>2020-01-01T18:53:39Z</time>
      </trkpt>
      <trkpt lat="59.34042" lon="18.085504">
        <ele>0</ele>
        <time>2020-01-01T18:53:54Z</time>
      </trkpt>
      <trkpt lat="59.340374" lon="18.08535">
        <ele>12</ele>
        <time>2020-01-01T18:54:16Z</time>
      </trkpt>
      <trkpt lat="59.340474" lon="18.085377">
        <ele>0</ele>
        <time>2020-01-01T18:54:43Z</time>
      </trkpt>
      <trkpt lat="59.340496" lon="18.085549">
        <ele>8</ele>
        <time>2020-01-01T18:56:05Z</time>
      </trkpt>
      <trkpt lat="59.340412" lon="18.085458">
        <ele>0</ele>
        <time>2020-01-01T18:56:20Z</time>
      </trkpt>
      <trkpt lat="59.34039" lon="18.085269">
        <ele>0</ele>
        <time>2020-01-01T18:56:24Z</time>
      </trkpt>
      <trkpt lat="59.340464" lon="18.085374">
        <ele>0</ele>
        <time>2020-01-01T18:56:42Z</time>
      </trkpt>
      <trkpt lat="59.340368" lon="18.085334">
        <ele>0</ele>
        <time>2020-01-01T18:56:58Z</time>
      </trkpt>
      <trkpt lat="59.340438" lon="18.085466">
        <ele>4</ele>
        <time>2020-01-01T18:57:17Z</time>
      </trkpt>
      <trkpt lat="59.340533" lon="18.085524">
        <ele>4</ele>
        <time>2020-01-01T18:57:51Z</time>
      </trkpt>
      <trkpt lat="59.34044" lon="18.085548">
        <ele>2</ele>
        <time>2020-01-01T18:58:17Z</time>
      </trkpt>
      <trkpt lat="59.340377" lon="18.085407">
        <ele>6</ele>
        <time>2020-01-01T18:59:55Z</time>
      </trkpt>
      <trkpt lat="59.340439" lon="18.085277">
        <ele>6</ele>
        <time>2020-01-01T19:00:03Z</time>
      </trkpt>
      <trkpt lat="59.340473" lon="18.085456">
        <ele>0</ele>
        <time>2020-01-01T19:00:12Z</time>
      </trkpt>
      <trkpt lat="59.340524" lon="18.085601">
        <ele>0</ele>
        <time>2020-01-01T19:00:36Z</time>
      </trkpt>
      <trkpt lat="59.340446" lon="18.085706">
        <ele>0</ele>
        <time>2020-01-01T19:00:49Z</time>
      </trkpt>
      <trkpt lat="59.340412" lon="18.085534">
        <ele>3</ele>
        <time>2020-01-01T19:01:04Z</time>
      </trkpt>
      <trkpt lat="59.340321" lon="18.085542">
        <ele>2</ele>
        <time>2020-01-01T19:02:06Z</time>
      </trkpt>
      <trkpt lat="59.340417" lon="18.085478">
        <ele>0</ele>
        <time>2020-01-01T19:02:23Z</time>
      </trkpt>
      <trkpt lat="59.340496" lon="18.085384">
        <ele>0</ele>
        <time>2020-01-01T19:02:34Z</time>
      </trkpt>
      <trkpt lat="59.340566" lon="18.085499">
        <ele>3</ele>
        <time>2020-01-01T19:03:12Z</time>
      </trkpt>
      <trkpt lat="59.340482" lon="18.085567">
        <ele>0</ele>
        <time>2020-01-01T19:03:40Z</time>
      </trkpt>
      <trkpt lat="59.340433" lon="18.085411">
        <ele>7</ele>
        <time>2020-01-01T19:04:40Z</time>
      </trkpt>
      <trkpt lat="59.340452" lon="18.085592">
        <ele>0</ele>
        <time>2020-01-01T19:04:50Z</time>
      </trkpt>
      <trkpt lat="59.340406" lon="18.085438">
        <ele>7</ele>
        <time>2020-01-01T19:06:13Z</time>
      </trkpt>
      <trkpt lat="59.340369" lon="18.085267">
        <ele>0</ele>
        <time>2020-01-01T19:06:23Z</time>
      </trkpt>
      <trkpt lat="59.340384" lon="18.085465">
        <ele>0</ele>
        <time>2020-01-01T19:06:57Z</time>
      </trkpt>
      <trkpt lat="59.340297" lon="18.0854">
        <ele>8</ele>
        <time>2020-01-01T19:07:22Z</time>
      </trkpt>
      <trkpt lat="59.340376" lon="18.085278">
        <ele>0</ele>
        <time>2020-01-01T19:07:32Z</time>
      </trkpt>
      <trkpt lat="59.340468" lon="18.085317">
        <ele>0</ele>
        <time>2020-01-01T19:07:39Z</time>
      </trkpt>
      <trkpt lat="59.340523" lon="18.085461">
        <ele>0</ele>
        <time>2020-01-01T19:07:48Z</time>
      </trkpt>
      <trkpt lat="59.340449" lon="18.085359">
        <ele>0</ele>
        <time>2020-01-01T19:07:57Z</time>
      </trkpt>
      <trkpt lat="59.340382" lon="18.085481">
        <ele>6</ele>
        <time>2020-01-01T19:08:47Z</time>
      </trkpt>
      <trkpt lat="59.340363" lon="18.0853">
        <ele>5</ele>
        <time>2020-01-01T19:09:37Z</time>
      </trkpt>
      <trkpt lat="59.340299" lon="18.085175">
        <ele>4</ele>
        <time>2020-01-01T19:10:25Z</time>
      </trkpt>
      <trkpt lat="59.340341" lon="18.085375">
        <ele>0</ele>
        <time>2020-01-01T19:10:36Z</time>
      </trkpt>
      <trkpt lat="59.340401" lon="18.085534">
        <ele>0</ele>
        <time>2020-01-01T19:10:40Z</time>
      </trkpt>
      <trkpt lat="59.340352" lon="18.085379">
        <ele>0</ele>
        <time>2020-01-01T19:11:49Z</time>
      </trkpt>
      <trkpt lat="59.340403" lon="18.085555">
        <ele>0</ele>
        <time>2020-01-01T19:12:02Z</time>
      </trkpt>
      <trkpt lat="59.3405" lon="18.085528">
        <ele>0</ele>
        <time>2020-01-01T19:12:50Z</time>
      </trkpt>
      <trkpt lat="59.340459" lon="18.085688">
        <ele>0</ele>
        <time>2020-01-01T19:13:48Z</time>
      </trkpt>
      <trkpt lat="59.340445" lon="18.085514">
        <ele>2</ele>
        <time>2020-01-01T19:14:15Z</time>
      </trkpt>
      <trkpt lat="59.340391" lon="18.08535">
        <ele>0</ele>
        <time>2020-01-01T19:14:27Z</time>
      </trkpt>
      <trkpt lat="59.340425" lon="18.085518">
        <ele>0</ele>
        <time>2020-01-01T19:14:44Z</time>
      </trkpt>
      <trkpt lat="59.340515" lon="18.085535">
        <ele>0</ele>
        <time>2020-01-01T19:14:55Z</time>
      </trkpt>
      <trkpt lat="59.340425" lon="18.085474">
        <ele>4</ele>
        <time>2020-01-01T19:15:43Z</time>
      </trkpt>
      <trkpt lat="59.340405" lon="18.085296">
        <ele>2</ele>
        <time>2020-01-01T19:17:10Z</time>
      </trkpt>
      <trkpt lat="59.340472" lon="18.085423">
        <ele>0</ele>
        <time>2020-01-01T19:17:32Z</time>
      </trkpt>
      <trkpt lat="59.340376" lon="18.08544">
        <ele>0</ele>
        <time>2020-01-01T19:18:57Z</time>
      </trkpt>
      <trkpt lat="59.340326" lon="18.085292">
        <ele>0</ele>
        <time>2020-01-01T19:19:24Z</time>
      </trkpt>
      <trkpt lat="59.340403" lon="18.085408">
        <ele>0</ele>
        <time>2020-01-01T19:20:01Z</time>
      </trkpt>
      <trkpt lat="59.340382" lon="18.08558">
        <ele>0</ele>
        <time>2020-01-01T19:20:14Z</time>
      </trkpt>
      <trkpt lat="59.340472" lon="18.085589">
        <ele>0</ele>
        <time>2020-01-01T19:20:40Z</time>
      </trkpt>
      <trkpt lat="59.340422" lon="18.085442">
        <ele>0</ele>
        <time>2020-01-01T19:21:04Z</time>
      </trkpt>
      <trkpt lat="59.340394" lon="18.085625">
        <ele>0</ele>
        <time>2020-01-01T19:21:50Z</time>
      </trkpt>
      <trkpt lat="59.340421" lon="18.085444">
        <ele>0</ele>
        <time>2020-01-01T19:22:25Z</time>
      </trkpt>
      <trkpt lat="59.340315" lon="18.085373">
        <ele>0</ele>
        <time>2020-01-01T19:22:37Z</time>
      </trkpt>
      <trkpt lat="59.340403" lon="18.085329">
        <ele>0</ele>
        <time>2020-01-01T19:23:02Z</time>
      </trkpt>
      <trkpt lat="59.340372" lon="18.085152">
        <ele>0</ele>
        <time>2020-01-01T19:24:00Z</time>
      </trkpt>
      <trkpt lat="59.340346" lon="18.08532">
        <ele>0</ele>
        <time>2020-01-01T19:24:22Z</time>
      </trkpt>
      <trkpt lat="59.340422" lon="18.085422">
        <ele>0</ele>
        <time>2020-01-01T19:24:43Z</time>
      </trkpt>
      <trkpt lat="59.340508" lon="18.085494">
        <ele>0</ele>
        <time>2020-01-01T19:24:54Z</time>
      </trkpt>
      <trkpt lat="59.340425" lon="18.085408">
        <ele>0</ele>
        <time>2020-01-01T19:25:03Z</time>
      </trkpt>
      <trkpt lat="59.340337" lon="18.085368">
        <ele>0</ele>
        <time>2020-01-01T19:26:26Z</time>
      </trkpt>
      <trkpt lat="59.340245" lon="18.085277">
        <ele>0</ele>
        <time>2020-01-01T19:26:34Z</time>
      </trkpt>
      <trkpt lat="59.340339" lon="18.085316">
        <ele>0</ele>
        <time>2020-01-01T19:26:43Z</time>
      </trkpt>
      <trkpt lat="59.340346" lon="18.08552">
        <ele>0</ele>
        <time>2020-01-01T19:27:24Z</time>
      </trkpt>
      <trkpt lat="59.340404" lon="18.08567">
        <ele>0</ele>
        <time>2020-01-01T19:27:31Z</time>
      </trkpt>
      <trkpt lat="59.340311" lon="18.085649">
        <ele>0</ele>
        <time>2020-01-01T19:27:41Z</time>
      </trkpt>
      <trkpt lat="59.340287" lon="18.085462">
        <ele>0</ele>
        <time>2020-01-01T19:27:52Z</time>
      </trkpt>
      <trkpt lat="59.340376" lon="18.085386">
        <ele>0</ele>
        <time>2020-01-01T19:28:10Z</time>
      </trkpt>
      <trkpt lat="59.340426" lon="18.085536">
        <ele>0</ele>
        <time>2020-01-01T19:28:21Z</time>
      </trkpt>
      <trkpt lat="59.340362" lon="18.085405">
        <ele>0</ele>
        <time>2020-01-01T19:28:57Z</time>
      </trkpt>
      <trkpt lat="59.340455" lon="18.085432">
        <ele>0</ele>
        <time>2020-01-01T19:29:07Z</time>
      </trkpt>
      <trkpt lat="59.340364" lon="18.085527">
        <ele>0</ele>
        <time>2020-01-01T19:29:21Z</time>
      </trkpt>
      <trkpt lat="59.340446" lon="18.085426">
        <ele>0</ele>
        <time>2020-01-01T19:29:31Z</time>
      </trkpt>
      <trkpt lat="59.340377" lon="18.085558">
        <ele>0</ele>
        <time>2020-01-01T19:29:55Z</time>
      </trkpt>
      <trkpt lat="59.340336" lon="18.085369">
        <ele>0</ele>
        <time>2020-01-01T19:30:23Z</time>
      </trkpt>
      <trkpt lat="59.34043" lon="18.085341">
        <ele>0</ele>
        <time>2020-01-01T19:30:48Z</time>
      </trkpt>
      <trkpt lat="59.340469" lon="18.085502">
        <ele>0</ele>
        <time>2020-01-01T19:30:56Z</time>
      </trkpt>
      <trkpt lat="59.340376" lon="18.085441">
        <ele>0</ele>
        <time>2020-01-01T19:31:05Z</time>
      </trkpt>
      <trkpt lat="59.340441" lon="18.085564">
        <ele>0</ele>
        <time>2020-01-01T19:31:12Z</time>
      </trkpt>
      <trkpt lat="59.340387" lon="18.085399">
        <ele>0</ele>
        <time>2020-01-01T19:32:00Z</time>
      </trkpt>
      <trkpt lat="59.34048" lon="18.085402">
        <ele>0</ele>
        <time>2020-01-01T19:32:53Z</time>
      </trkpt>
      <trkpt lat="59.340391" lon="18.085339">
        <ele>0</ele>
        <time>2020-01-01T19:33:33Z</time>
      </trkpt>
      <trkpt lat="59.340313" lon="18.085236">
        <ele>0</ele>
        <time>2020-01-01T19:33:42Z</time>
      </trkpt>
      <trkpt lat="59.340339" lon="18.085483">
        <ele>0</ele>
        <time>2020-01-01T19:33:56Z</time>
      </trkpt>
      <trkpt lat="59.340379" lon="18.085651">
        <ele>0</ele>
        <time>2020-01-01T19:33:59Z</time>
      </trkpt>
      <trkpt lat="59.340368" lon="18.085641">
        <ele>0</ele>
        <time>2020-01-01T19:34:01Z</time>
      </trkpt>
    </trkseg>
  </trk>
</gpx>